sensor_id;sensor_type;location;lat;lon;timestamp;P1;durP1;ratioP1;P2;durP2;ratioP2
74042;SDS011;62384;53.600;10.040;2023-04-24T00:01:28;11.60;;;5.00;;
74042;SDS011;62384;53.600;10.040;2023-04-24T00:03:56;9.18;;;4.85;;
74042;SDS011;62384;53.600;10.040;2023-04-24T00:06:24;8.73;;;4.75;;
74042;SDS011;62384;53.600;10.040;2023-04-24T00:08:57;6.72;;;4.00;;
74042;SDS011;62384;53.600;10.040;2023-04-24T00:11:23;9.13;;;4.70;;
74042;SDS011;62384;53.600;10.040;2023-04-24T00:13:48;7.05;;;4.60;;
74042;SDS011;62384;53.600;10.040;2023-04-24T00:16:13;7.75;;;4.65;;
74042;SDS011;62384;53.600;10.040;2023-04-24T00:18:38;8.77;;;4.75;;
74042;SDS011;62384;53.600;10.040;2023-04-24T00:21:04;9.77;;;4.93;;
74042;SDS011;62384;53.600;10.040;2023-04-24T00:23:30;7.93;;;4.57;;
74042;SDS011;62384;53.600;10.040;2023-04-24T00:25:56;7.40;;;4.20;;
74042;SDS011;62384;53.600;10.040;2023-04-24T00:28:21;9.98;;;5.55;;
74042;SDS011;62384;53.600;10.040;2023-04-24T00:30:47;6.85;;;4.30;;
74042;SDS011;62384;53.600;10.040;2023-04-24T00:33:12;8.93;;;4.53;;
74042;SDS011;62384;53.600;10.040;2023-04-24T00:35:37;7.63;;;4.57;;
74042;SDS011;62384;53.600;10.040;2023-04-24T00:38:03;7.68;;;4.40;;
74042;SDS011;62384;53.600;10.040;2023-04-24T00:40:28;7.28;;;4.53;;
74042;SDS011;62384;53.600;10.040;2023-04-24T00:42:54;8.02;;;4.57;;
74042;SDS011;62384;53.600;10.040;2023-04-24T00:45:19;9.93;;;4.57;;
74042;SDS011;62384;53.600;10.040;2023-04-24T00:47:45;6.93;;;4.07;;
74042;SDS011;62384;53.600;10.040;2023-04-24T00:50:11;7.88;;;4.80;;
74042;SDS011;62384;53.600;10.040;2023-04-24T00:52:38;7.35;;;4.20;;
74042;SDS011;62384;53.600;10.040;2023-04-24T00:55:05;6.22;;;4.20;;
74042;SDS011;62384;53.600;10.040;2023-04-24T00:57:32;8.07;;;4.43;;
74042;SDS011;62384;53.600;10.040;2023-04-24T00:59:57;5.97;;;4.07;;
74042;SDS011;62384;53.600;10.040;2023-04-24T01:02:23;7.30;;;4.50;;
74042;SDS011;62384;53.600;10.040;2023-04-24T01:04:52;9.98;;;4.88;;
74042;SDS011;62384;53.600;10.040;2023-04-24T01:07:19;7.30;;;4.60;;
74042;SDS011;62384;53.600;10.040;2023-04-24T01:09:47;6.90;;;4.45;;
74042;SDS011;62384;53.600;10.040;2023-04-24T01:12:14;8.07;;;4.88;;
74042;SDS011;62384;53.600;10.040;2023-04-24T01:14:40;9.15;;;4.50;;
74042;SDS011;62384;53.600;10.040;2023-04-24T01:17:05;7.63;;;4.72;;
74042;SDS011;62384;53.600;10.040;2023-04-24T01:19:31;10.45;;;4.80;;
74042;SDS011;62384;53.600;10.040;2023-04-24T01:21:57;6.35;;;4.10;;
74042;SDS011;62384;53.600;10.040;2023-04-24T01:24:24;7.18;;;4.45;;
74042;SDS011;62384;53.600;10.040;2023-04-24T01:26:49;8.02;;;4.50;;
74042;SDS011;62384;53.600;10.040;2023-04-24T01:29:15;7.78;;;4.68;;
74042;SDS011;62384;53.600;10.040;2023-04-24T01:31:40;8.23;;;4.30;;
74042;SDS011;62384;53.600;10.040;2023-04-24T01:34:06;9.48;;;4.88;;
74042;SDS011;62384;53.600;10.040;2023-04-24T01:36:33;7.15;;;4.40;;
74042;SDS011;62384;53.600;10.040;2023-04-24T01:39:00;7.43;;;4.63;;
74042;SDS011;62384;53.600;10.040;2023-04-24T01:41:25;7.72;;;4.30;;
74042;SDS011;62384;53.600;10.040;2023-04-24T01:43:51;8.93;;;4.32;;
74042;SDS011;62384;53.600;10.040;2023-04-24T01:46:16;6.78;;;4.00;;
74042;SDS011;62384;53.600;10.040;2023-04-24T01:48:42;6.30;;;3.53;;
74042;SDS011;62384;53.600;10.040;2023-04-24T01:51:09;6.47;;;3.60;;
74042;SDS011;62384;53.600;10.040;2023-04-24T01:53:35;5.22;;;3.70;;
74042;SDS011;62384;53.600;10.040;2023-04-24T01:56:00;6.22;;;3.83;;
74042;SDS011;62384;53.600;10.040;2023-04-24T01:58:26;7.20;;;3.88;;
74042;SDS011;62384;53.600;10.040;2023-04-24T02:00:52;4.57;;;3.10;;
74042;SDS011;62384;53.600;10.040;2023-04-24T02:03:17;4.90;;;2.90;;
74042;SDS011;62384;53.600;10.040;2023-04-24T02:05:45;4.65;;;2.72;;
74042;SDS011;62384;53.600;10.040;2023-04-24T02:08:11;5.35;;;2.63;;
74042;SDS011;62384;53.600;10.040;2023-04-24T02:10:36;4.78;;;2.70;;
74042;SDS011;62384;53.600;10.040;2023-04-24T02:13:01;3.90;;;2.60;;
74042;SDS011;62384;53.600;10.040;2023-04-24T02:15:27;4.53;;;2.60;;
74042;SDS011;62384;53.600;10.040;2023-04-24T02:17:52;6.20;;;2.55;;
74042;SDS011;62384;53.600;10.040;2023-04-24T02:20:18;4.45;;;2.20;;
74042;SDS011;62384;53.600;10.040;2023-04-24T02:22:43;3.33;;;2.40;;
74042;SDS011;62384;53.600;10.040;2023-04-24T02:25:08;3.60;;;2.40;;
74042;SDS011;62384;53.600;10.040;2023-04-24T02:27:34;3.85;;;2.67;;
74042;SDS011;62384;53.600;10.040;2023-04-24T02:29:59;3.92;;;2.63;;
74042;SDS011;62384;53.600;10.040;2023-04-24T02:32:25;3.45;;;2.20;;
74042;SDS011;62384;53.600;10.040;2023-04-24T02:34:50;3.78;;;2.38;;
74042;SDS011;62384;53.600;10.040;2023-04-24T02:37:16;4.78;;;2.95;;
74042;SDS011;62384;53.600;10.040;2023-04-24T02:39:41;4.03;;;2.17;;
74042;SDS011;62384;53.600;10.040;2023-04-24T02:42:08;4.70;;;2.72;;
74042;SDS011;62384;53.600;10.040;2023-04-24T02:44:33;4.90;;;2.60;;
74042;SDS011;62384;53.600;10.040;2023-04-24T02:47:00;3.53;;;2.50;;
74042;SDS011;62384;53.600;10.040;2023-04-24T02:49:25;4.75;;;2.22;;
74042;SDS011;62384;53.600;10.040;2023-04-24T02:51:51;5.10;;;2.67;;
74042;SDS011;62384;53.600;10.040;2023-04-24T02:54:17;3.63;;;2.30;;
74042;SDS011;62384;53.600;10.040;2023-04-24T02:56:42;3.15;;;2.20;;
74042;SDS011;62384;53.600;10.040;2023-04-24T02:59:08;5.43;;;2.50;;
74042;SDS011;62384;53.600;10.040;2023-04-24T03:01:35;3.03;;;2.10;;
74042;SDS011;62384;53.600;10.040;2023-04-24T03:04:00;4.30;;;2.22;;
74042;SDS011;62384;53.600;10.040;2023-04-24T03:06:25;3.38;;;2.42;;
74042;SDS011;62384;53.600;10.040;2023-04-24T03:08:51;2.97;;;2.20;;
74042;SDS011;62384;53.600;10.040;2023-04-24T03:11:17;3.33;;;2.17;;
74042;SDS011;62384;53.600;10.040;2023-04-24T03:13:42;3.22;;;2.08;;
74042;SDS011;62384;53.600;10.040;2023-04-24T03:16:07;2.70;;;1.80;;
74042;SDS011;62384;53.600;10.040;2023-04-24T03:18:33;2.22;;;1.90;;
74042;SDS011;62384;53.600;10.040;2023-04-24T03:20:58;2.47;;;1.88;;
74042;SDS011;62384;53.600;10.040;2023-04-24T03:23:24;3.38;;;2.00;;
74042;SDS011;62384;53.600;10.040;2023-04-24T03:25:49;4.85;;;1.80;;
74042;SDS011;62384;53.600;10.040;2023-04-24T03:28:14;3.38;;;1.75;;
74042;SDS011;62384;53.600;10.040;2023-04-24T03:30:40;2.42;;;1.80;;
74042;SDS011;62384;53.600;10.040;2023-04-24T03:33:05;2.97;;;1.65;;
74042;SDS011;62384;53.600;10.040;2023-04-24T03:35:30;2.20;;;1.45;;
74042;SDS011;62384;53.600;10.040;2023-04-24T03:37:56;2.10;;;1.55;;
74042;SDS011;62384;53.600;10.040;2023-04-24T03:40:22;3.35;;;1.67;;
74042;SDS011;62384;53.600;10.040;2023-04-24T03:42:47;2.58;;;1.30;;
74042;SDS011;62384;53.600;10.040;2023-04-24T03:45:12;2.15;;;1.10;;
74042;SDS011;62384;53.600;10.040;2023-04-24T03:47:38;3.78;;;1.40;;
74042;SDS011;62384;53.600;10.040;2023-04-24T03:50:03;3.42;;;1.80;;
74042;SDS011;62384;53.600;10.040;2023-04-24T03:52:28;2.35;;;1.40;;
74042;SDS011;62384;53.600;10.040;2023-04-24T03:54:54;2.20;;;1.50;;
74042;SDS011;62384;53.600;10.040;2023-04-24T03:57:20;3.92;;;1.65;;
74042;SDS011;62384;53.600;10.040;2023-04-24T03:59:45;3.30;;;1.40;;
74042;SDS011;62384;53.600;10.040;2023-04-24T04:02:11;1.45;;;1.10;;
74042;SDS011;62384;53.600;10.040;2023-04-24T04:04:36;2.13;;;1.50;;
74042;SDS011;62384;53.600;10.040;2023-04-24T04:07:01;2.47;;;1.27;;
74042;SDS011;62384;53.600;10.040;2023-04-24T04:09:27;2.10;;;1.40;;
74042;SDS011;62384;53.600;10.040;2023-04-24T04:11:53;1.40;;;1.02;;
74042;SDS011;62384;53.600;10.040;2023-04-24T04:14:18;4.25;;;1.48;;
74042;SDS011;62384;53.600;10.040;2023-04-24T04:16:44;1.85;;;1.50;;
74042;SDS011;62384;53.600;10.040;2023-04-24T04:19:09;2.85;;;1.45;;
74042;SDS011;62384;53.600;10.040;2023-04-24T04:21:35;1.38;;;1.15;;
74042;SDS011;62384;53.600;10.040;2023-04-24T04:24:00;3.40;;;1.42;;
74042;SDS011;62384;53.600;10.040;2023-04-24T04:26:26;1.90;;;1.40;;
74042;SDS011;62384;53.600;10.040;2023-04-24T04:28:52;1.92;;;1.55;;
74042;SDS011;62384;53.600;10.040;2023-04-24T04:31:19;2.20;;;1.25;;
74042;SDS011;62384;53.600;10.040;2023-04-24T04:33:45;1.65;;;1.00;;
74042;SDS011;62384;53.600;10.040;2023-04-24T04:36:10;1.73;;;0.95;;
74042;SDS011;62384;53.600;10.040;2023-04-24T04:38:37;1.23;;;0.90;;
74042;SDS011;62384;53.600;10.040;2023-04-24T04:41:02;7.75;;;1.30;;
74042;SDS011;62384;53.600;10.040;2023-04-24T04:43:28;1.38;;;1.00;;
74042;SDS011;62384;53.600;10.040;2023-04-24T04:45:54;1.05;;;0.95;;
74042;SDS011;62384;53.600;10.040;2023-04-24T04:48:21;2.13;;;0.93;;
74042;SDS011;62384;53.600;10.040;2023-04-24T04:50:47;2.47;;;1.23;;
74042;SDS011;62384;53.600;10.040;2023-04-24T04:53:12;1.13;;;1.00;;
74042;SDS011;62384;53.600;10.040;2023-04-24T04:55:38;1.55;;;1.17;;
74042;SDS011;62384;53.600;10.040;2023-04-24T04:58:06;1.42;;;1.10;;
74042;SDS011;62384;53.600;10.040;2023-04-24T05:00:32;1.23;;;0.90;;
74042;SDS011;62384;53.600;10.040;2023-04-24T05:03:00;0.98;;;0.90;;
74042;SDS011;62384;53.600;10.040;2023-04-24T05:05:26;1.90;;;1.23;;
74042;SDS011;62384;53.600;10.040;2023-04-24T05:07:51;5.88;;;1.23;;
74042;SDS011;62384;53.600;10.040;2023-04-24T05:10:16;1.83;;;0.82;;
74042;SDS011;62384;53.600;10.040;2023-04-24T05:12:42;2.88;;;1.20;;
74042;SDS011;62384;53.600;10.040;2023-04-24T05:15:07;2.13;;;0.98;;
74042;SDS011;62384;53.600;10.040;2023-04-24T05:17:33;2.72;;;1.00;;
74042;SDS011;62384;53.600;10.040;2023-04-24T05:19:58;1.35;;;1.05;;
74042;SDS011;62384;53.600;10.040;2023-04-24T05:22:24;2.28;;;1.27;;
74042;SDS011;62384;53.600;10.040;2023-04-24T05:24:49;1.10;;;0.93;;
74042;SDS011;62384;53.600;10.040;2023-04-24T05:27:14;0.80;;;0.73;;
74042;SDS011;62384;53.600;10.040;2023-04-24T05:29:40;4.07;;;0.80;;
74042;SDS011;62384;53.600;10.040;2023-04-24T05:32:05;1.23;;;0.80;;
74042;SDS011;62384;53.600;10.040;2023-04-24T05:34:31;3.13;;;0.80;;
74042;SDS011;62384;53.600;10.040;2023-04-24T05:36:57;2.00;;;0.98;;
74042;SDS011;62384;53.600;10.040;2023-04-24T05:39:22;1.58;;;1.08;;
74042;SDS011;62384;53.600;10.040;2023-04-24T05:41:47;1.42;;;0.95;;
74042;SDS011;62384;53.600;10.040;2023-04-24T05:44:13;2.05;;;0.90;;
74042;SDS011;62384;53.600;10.040;2023-04-24T05:46:38;2.55;;;1.10;;
74042;SDS011;62384;53.600;10.040;2023-04-24T05:49:03;1.90;;;1.52;;
74042;SDS011;62384;53.600;10.040;2023-04-24T05:51:28;2.03;;;1.30;;
74042;SDS011;62384;53.600;10.040;2023-04-24T05:53:54;1.92;;;0.85;;
74042;SDS011;62384;53.600;10.040;2023-04-24T05:56:19;1.10;;;1.00;;
74042;SDS011;62384;53.600;10.040;2023-04-24T05:58:45;2.20;;;1.00;;
74042;SDS011;62384;53.600;10.040;2023-04-24T06:01:11;1.63;;;1.20;;
74042;SDS011;62384;53.600;10.040;2023-04-24T06:03:37;2.28;;;1.20;;
74042;SDS011;62384;53.600;10.040;2023-04-24T06:06:04;1.65;;;1.23;;
74042;SDS011;62384;53.600;10.040;2023-04-24T06:08:31;4.30;;;1.15;;
74042;SDS011;62384;53.600;10.040;2023-04-24T06:10:56;2.75;;;1.23;;
74042;SDS011;62384;53.600;10.040;2023-04-24T06:13:21;2.33;;;1.50;;
74042;SDS011;62384;53.600;10.040;2023-04-24T06:15:47;2.08;;;1.00;;
74042;SDS011;62384;53.600;10.040;2023-04-24T06:18:12;1.90;;;1.20;;
74042;SDS011;62384;53.600;10.040;2023-04-24T06:20:37;1.42;;;1.33;;
74042;SDS011;62384;53.600;10.040;2023-04-24T06:23:03;3.47;;;1.20;;
74042;SDS011;62384;53.600;10.040;2023-04-24T06:25:28;2.40;;;0.98;;
74042;SDS011;62384;53.600;10.040;2023-04-24T06:27:54;1.65;;;1.02;;
74042;SDS011;62384;53.600;10.040;2023-04-24T06:30:20;2.50;;;0.73;;
74042;SDS011;62384;53.600;10.040;2023-04-24T06:32:46;3.55;;;1.05;;
74042;SDS011;62384;53.600;10.040;2023-04-24T06:35:11;1.90;;;0.90;;
74042;SDS011;62384;53.600;10.040;2023-04-24T06:37:37;1.58;;;0.80;;
74042;SDS011;62384;53.600;10.040;2023-04-24T06:40:04;1.52;;;1.02;;
74042;SDS011;62384;53.600;10.040;2023-04-24T06:42:30;0.90;;;0.70;;
74042;SDS011;62384;53.600;10.040;2023-04-24T06:44:55;1.42;;;1.05;;
74042;SDS011;62384;53.600;10.040;2023-04-24T06:47:21;1.80;;;0.90;;
74042;SDS011;62384;53.600;10.040;2023-04-24T06:49:46;1.73;;;1.50;;
74042;SDS011;62384;53.600;10.040;2023-04-24T06:52:11;1.20;;;0.93;;
74042;SDS011;62384;53.600;10.040;2023-04-24T06:54:36;2.28;;;1.45;;
74042;SDS011;62384;53.600;10.040;2023-04-24T06:57:02;2.13;;;1.30;;
74042;SDS011;62384;53.600;10.040;2023-04-24T06:59:28;1.40;;;1.10;;
74042;SDS011;62384;53.600;10.040;2023-04-24T07:01:54;1.73;;;1.27;;
74042;SDS011;62384;53.600;10.040;2023-04-24T07:04:19;2.42;;;1.25;;
74042;SDS011;62384;53.600;10.040;2023-04-24T07:06:45;1.38;;;1.00;;
74042;SDS011;62384;53.600;10.040;2023-04-24T07:09:11;2.67;;;1.20;;
74042;SDS011;62384;53.600;10.040;2023-04-24T07:11:38;3.67;;;1.42;;
74042;SDS011;62384;53.600;10.040;2023-04-24T07:14:05;7.78;;;1.98;;
74042;SDS011;62384;53.600;10.040;2023-04-24T07:16:31;1.65;;;1.30;;
74042;SDS011;62384;53.600;10.040;2023-04-24T07:18:56;1.95;;;1.17;;
74042;SDS011;62384;53.600;10.040;2023-04-24T07:21:22;2.05;;;1.50;;
74042;SDS011;62384;53.600;10.040;2023-04-24T07:23:47;3.42;;;2.08;;
74042;SDS011;62384;53.600;10.040;2023-04-24T07:26:13;3.88;;;2.00;;
74042;SDS011;62384;53.600;10.040;2023-04-24T07:28:39;9.38;;;2.00;;
74042;SDS011;62384;53.600;10.040;2023-04-24T07:31:05;3.00;;;2.13;;
74042;SDS011;62384;53.600;10.040;2023-04-24T07:33:31;3.72;;;1.92;;
74042;SDS011;62384;53.600;10.040;2023-04-24T07:35:57;3.03;;;1.85;;
74042;SDS011;62384;53.600;10.040;2023-04-24T07:38:22;2.63;;;2.08;;
74042;SDS011;62384;53.600;10.040;2023-04-24T07:40:48;3.35;;;1.90;;
74042;SDS011;62384;53.600;10.040;2023-04-24T07:43:16;4.25;;;1.80;;
74042;SDS011;62384;53.600;10.040;2023-04-24T07:45:42;3.00;;;1.80;;
74042;SDS011;62384;53.600;10.040;2023-04-24T07:48:07;5.10;;;1.95;;
74042;SDS011;62384;53.600;10.040;2023-04-24T07:50:34;2.92;;;2.30;;
74042;SDS011;62384;53.600;10.040;2023-04-24T07:52:59;4.28;;;2.78;;
74042;SDS011;62384;53.600;10.040;2023-04-24T07:55:25;4.13;;;2.30;;
74042;SDS011;62384;53.600;10.040;2023-04-24T07:57:50;2.88;;;2.30;;
74042;SDS011;62384;53.600;10.040;2023-04-24T08:00:18;3.03;;;2.40;;
74042;SDS011;62384;53.600;10.040;2023-04-24T08:02:46;2.67;;;2.30;;
74042;SDS011;62384;53.600;10.040;2023-04-24T08:05:11;7.57;;;2.95;;
74042;SDS011;62384;53.600;10.040;2023-04-24T08:07:37;4.18;;;2.65;;
74042;SDS011;62384;53.600;10.040;2023-04-24T08:10:03;4.32;;;2.67;;
74042;SDS011;62384;53.600;10.040;2023-04-24T08:12:29;3.30;;;2.20;;
74042;SDS011;62384;53.600;10.040;2023-04-24T08:14:54;3.47;;;2.92;;
74042;SDS011;62384;53.600;10.040;2023-04-24T08:17:20;3.35;;;2.35;;
74042;SDS011;62384;53.600;10.040;2023-04-24T08:19:45;4.10;;;2.70;;
74042;SDS011;62384;53.600;10.040;2023-04-24T08:22:14;8.20;;;3.13;;
74042;SDS011;62384;53.600;10.040;2023-04-24T08:24:39;5.90;;;3.38;;
74042;SDS011;62384;53.600;10.040;2023-04-24T08:27:05;6.68;;;3.25;;
74042;SDS011;62384;53.600;10.040;2023-04-24T08:29:30;4.05;;;3.35;;
74042;SDS011;62384;53.600;10.040;2023-04-24T08:31:56;4.53;;;3.45;;
74042;SDS011;62384;53.600;10.040;2023-04-24T08:34:22;4.55;;;3.45;;
74042;SDS011;62384;53.600;10.040;2023-04-24T08:36:47;4.22;;;3.00;;
74042;SDS011;62384;53.600;10.040;2023-04-24T08:39:13;5.85;;;3.20;;
74042;SDS011;62384;53.600;10.040;2023-04-24T08:41:41;4.18;;;2.78;;
74042;SDS011;62384;53.600;10.040;2023-04-24T08:44:08;3.90;;;2.85;;
74042;SDS011;62384;53.600;10.040;2023-04-24T08:46:34;4.10;;;2.58;;
74042;SDS011;62384;53.600;10.040;2023-04-24T08:49:00;5.32;;;3.00;;
74042;SDS011;62384;53.600;10.040;2023-04-24T08:51:27;4.13;;;3.10;;
74042;SDS011;62384;53.600;10.040;2023-04-24T08:53:55;4.03;;;3.13;;
74042;SDS011;62384;53.600;10.040;2023-04-24T08:56:22;6.45;;;3.72;;
74042;SDS011;62384;53.600;10.040;2023-04-24T08:58:48;6.72;;;3.45;;
74042;SDS011;62384;53.600;10.040;2023-04-24T09:01:15;6.32;;;3.55;;
74042;SDS011;62384;53.600;10.040;2023-04-24T09:03:41;5.40;;;3.60;;
74042;SDS011;62384;53.600;10.040;2023-04-24T09:06:06;5.68;;;3.70;;
74042;SDS011;62384;53.600;10.040;2023-04-24T09:08:34;6.63;;;4.10;;
74042;SDS011;62384;53.600;10.040;2023-04-24T09:11:00;6.00;;;3.60;;
74042;SDS011;62384;53.600;10.040;2023-04-24T09:13:27;5.65;;;4.00;;
74042;SDS011;62384;53.600;10.040;2023-04-24T09:15:53;7.00;;;3.97;;
74042;SDS011;62384;53.600;10.040;2023-04-24T09:18:19;6.00;;;4.00;;
74042;SDS011;62384;53.600;10.040;2023-04-24T09:23:45;7.18;;;3.85;;
74042;SDS011;62384;53.600;10.040;2023-04-24T09:26:10;6.63;;;3.97;;
74042;SDS011;62384;53.600;10.040;2023-04-24T09:28:36;7.18;;;3.72;;
74042;SDS011;62384;53.600;10.040;2023-04-24T09:31:04;3.65;;;3.08;;
74042;SDS011;62384;53.600;10.040;2023-04-24T09:33:29;4.43;;;3.08;;
74042;SDS011;62384;53.600;10.040;2023-04-24T09:35:55;5.57;;;3.53;;
74042;SDS011;62384;53.600;10.040;2023-04-24T09:38:30;5.80;;;3.70;;
74042;SDS011;62384;53.600;10.040;2023-04-24T09:41:04;5.25;;;3.97;;
74042;SDS011;62384;53.600;10.040;2023-04-24T09:43:32;5.95;;;3.22;;
74042;SDS011;62384;53.600;10.040;2023-04-24T09:46:03;4.82;;;3.17;;
74042;SDS011;62384;53.600;10.040;2023-04-24T09:48:34;4.68;;;3.35;;
74042;SDS011;62384;53.600;10.040;2023-04-24T09:51:00;4.57;;;3.50;;
74042;SDS011;62384;53.600;10.040;2023-04-24T09:53:28;6.40;;;3.70;;
74042;SDS011;62384;53.600;10.040;2023-04-24T09:55:54;5.65;;;3.88;;
74042;SDS011;62384;53.600;10.040;2023-04-24T09:58:26;5.32;;;3.70;;
74042;SDS011;62384;53.600;10.040;2023-04-24T10:00:55;5.53;;;4.10;;
74042;SDS011;62384;53.600;10.040;2023-04-24T10:03:24;6.47;;;4.07;;
74042;SDS011;62384;53.600;10.040;2023-04-24T10:05:57;6.65;;;4.53;;
74042;SDS011;62384;53.600;10.040;2023-04-24T10:08:24;6.43;;;4.05;;
74042;SDS011;62384;53.600;10.040;2023-04-24T10:10:50;6.45;;;4.28;;
74042;SDS011;62384;53.600;10.040;2023-04-24T10:13:15;6.43;;;4.25;;
74042;SDS011;62384;53.600;10.040;2023-04-24T10:15:41;10.38;;;4.50;;
74042;SDS011;62384;53.600;10.040;2023-04-24T10:18:07;8.02;;;4.60;;
74042;SDS011;62384;53.600;10.040;2023-04-24T10:20:34;7.55;;;4.72;;
74042;SDS011;62384;53.600;10.040;2023-04-24T10:23:03;6.47;;;3.85;;
74042;SDS011;62384;53.600;10.040;2023-04-24T10:25:30;6.93;;;4.65;;
74042;SDS011;62384;53.600;10.040;2023-04-24T10:27:57;7.95;;;5.10;;
74042;SDS011;62384;53.600;10.040;2023-04-24T10:33:48;9.85;;;5.43;;
74042;SDS011;62384;53.600;10.040;2023-04-24T10:36:16;10.95;;;5.35;;
74042;SDS011;62384;53.600;10.040;2023-04-24T10:38:42;13.15;;;7.28;;
74042;SDS011;62384;53.600;10.040;2023-04-24T10:41:11;12.35;;;6.45;;
74042;SDS011;62384;53.600;10.040;2023-04-24T10:43:48;11.02;;;6.05;;
74042;SDS011;62384;53.600;10.040;2023-04-24T10:46:21;10.55;;;6.18;;
74042;SDS011;62384;53.600;10.040;2023-04-24T10:48:53;10.90;;;5.93;;
74042;SDS011;62384;53.600;10.040;2023-04-24T10:51:21;11.60;;;6.10;;
74042;SDS011;62384;53.600;10.040;2023-04-24T10:54:21;9.68;;;5.38;;
74042;SDS011;62384;53.600;10.040;2023-04-24T10:56:47;12.45;;;6.68;;
74042;SDS011;62384;53.600;10.040;2023-04-24T10:59:12;15.10;;;6.20;;
74042;SDS011;62384;53.600;10.040;2023-04-24T11:01:52;11.32;;;6.32;;
74042;SDS011;62384;53.600;10.040;2023-04-24T11:04:28;12.63;;;6.00;;
74042;SDS011;62384;53.600;10.040;2023-04-24T11:06:55;10.38;;;6.20;;
74042;SDS011;62384;53.600;10.040;2023-04-24T11:09:21;11.77;;;5.95;;
74042;SDS011;62384;53.600;10.040;2023-04-24T11:11:46;10.07;;;5.65;;
74042;SDS011;62384;53.600;10.040;2023-04-24T11:14:15;11.30;;;5.70;;
74042;SDS011;62384;53.600;10.040;2023-04-24T11:19:07;10.65;;;5.40;;
74042;SDS011;62384;53.600;10.040;2023-04-24T11:32:26;8.30;;;5.05;;
74042;SDS011;62384;53.600;10.040;2023-04-24T11:34:53;9.35;;;5.90;;
74042;SDS011;62384;53.600;10.040;2023-04-24T11:37:21;11.68;;;5.38;;
74042;SDS011;62384;53.600;10.040;2023-04-24T11:39:49;9.48;;;5.13;;
74042;SDS011;62384;53.600;10.040;2023-04-24T11:42:19;12.93;;;5.50;;
74042;SDS011;62384;53.600;10.040;2023-04-24T11:44:46;12.70;;;6.20;;
74042;SDS011;62384;53.600;10.040;2023-04-24T11:47:12;10.00;;;5.20;;
74042;SDS011;62384;53.600;10.040;2023-04-24T11:49:38;10.35;;;5.55;;
74042;SDS011;62384;53.600;10.040;2023-04-24T11:52:04;8.88;;;5.25;;
74042;SDS011;62384;53.600;10.040;2023-04-24T11:54:30;10.32;;;5.20;;
74042;SDS011;62384;53.600;10.040;2023-04-24T11:56:55;10.65;;;5.72;;
74042;SDS011;62384;53.600;10.040;2023-04-24T11:59:21;8.95;;;5.32;;
74042;SDS011;62384;53.600;10.040;2023-04-24T12:01:47;7.82;;;4.88;;
74042;SDS011;62384;53.600;10.040;2023-04-24T12:04:14;10.82;;;5.57;;
74042;SDS011;62384;53.600;10.040;2023-04-24T12:06:58;9.23;;;4.93;;
74042;SDS011;62384;53.600;10.040;2023-04-24T12:09:24;7.50;;;4.53;;
74042;SDS011;62384;53.600;10.040;2023-04-24T12:11:56;7.57;;;4.75;;
74042;SDS011;62384;53.600;10.040;2023-04-24T12:14:22;6.45;;;3.88;;
74042;SDS011;62384;53.600;10.040;2023-04-24T12:16:48;11.32;;;4.70;;
74042;SDS011;62384;53.600;10.040;2023-04-24T12:19:21;6.10;;;4.35;;
74042;SDS011;62384;53.600;10.040;2023-04-24T12:22:03;5.75;;;3.83;;
74042;SDS011;62384;53.600;10.040;2023-04-24T12:24:30;9.35;;;3.50;;
74042;SDS011;62384;53.600;10.040;2023-04-24T12:26:56;8.70;;;4.30;;
74042;SDS011;62384;53.600;10.040;2023-04-24T12:29:21;6.22;;;4.40;;
74042;SDS011;62384;53.600;10.040;2023-04-24T12:31:47;9.10;;;5.07;;
74042;SDS011;62384;53.600;10.040;2023-04-24T12:34:23;7.20;;;3.72;;
74042;SDS011;62384;53.600;10.040;2023-04-24T12:36:50;8.10;;;4.95;;
74042;SDS011;62384;53.600;10.040;2023-04-24T12:39:18;7.97;;;4.38;;
74042;SDS011;62384;53.600;10.040;2023-04-24T12:41:56;7.30;;;4.18;;
74042;SDS011;62384;53.600;10.040;2023-04-24T12:44:40;6.78;;;3.88;;
74042;SDS011;62384;53.600;10.040;2023-04-24T12:47:06;7.80;;;4.35;;
74042;SDS011;62384;53.600;10.040;2023-04-24T12:49:32;7.15;;;4.50;;
74042;SDS011;62384;53.600;10.040;2023-04-24T12:51:57;7.57;;;4.13;;
74042;SDS011;62384;53.600;10.040;2023-04-24T12:54:23;8.43;;;4.47;;
74042;SDS011;62384;53.600;10.040;2023-04-24T12:56:48;8.95;;;4.70;;
74042;SDS011;62384;53.600;10.040;2023-04-24T12:59:13;7.35;;;4.70;;
74042;SDS011;62384;53.600;10.040;2023-04-24T13:01:39;7.97;;;4.88;;
74042;SDS011;62384;53.600;10.040;2023-04-24T13:04:05;8.10;;;4.80;;
74042;SDS011;62384;53.600;10.040;2023-04-24T13:06:30;6.95;;;4.60;;
74042;SDS011;62384;53.600;10.040;2023-04-24T13:08:56;10.50;;;4.95;;
74042;SDS011;62384;53.600;10.040;2023-04-24T13:11:22;11.00;;;5.35;;
74042;SDS011;62384;53.600;10.040;2023-04-24T13:13:48;8.40;;;4.57;;
74042;SDS011;62384;53.600;10.040;2023-04-24T13:16:14;8.02;;;4.45;;
74042;SDS011;62384;53.600;10.040;2023-04-24T13:18:39;9.63;;;4.47;;
74042;SDS011;62384;53.600;10.040;2023-04-24T13:21:05;6.55;;;4.13;;
74042;SDS011;62384;53.600;10.040;2023-04-24T13:23:30;5.70;;;3.97;;
74042;SDS011;62384;53.600;10.040;2023-04-24T13:25:55;8.00;;;4.28;;
74042;SDS011;62384;53.600;10.040;2023-04-24T13:28:23;7.20;;;4.40;;
74042;SDS011;62384;53.600;10.040;2023-04-24T13:30:49;7.45;;;4.57;;
74042;SDS011;62384;53.600;10.040;2023-04-24T13:33:15;6.80;;;4.05;;
74042;SDS011;62384;53.600;10.040;2023-04-24T13:35:40;10.43;;;5.20;;
74042;SDS011;62384;53.600;10.040;2023-04-24T13:38:05;8.65;;;4.10;;
74042;SDS011;62384;53.600;10.040;2023-04-24T13:40:31;6.63;;;4.05;;
74042;SDS011;62384;53.600;10.040;2023-04-24T13:42:56;8.32;;;4.40;;
74042;SDS011;62384;53.600;10.040;2023-04-24T13:45:22;6.82;;;4.55;;
74042;SDS011;62384;53.600;10.040;2023-04-24T13:47:47;6.45;;;4.22;;
74042;SDS011;62384;53.600;10.040;2023-04-24T13:50:12;7.30;;;4.35;;
74042;SDS011;62384;53.600;10.040;2023-04-24T13:52:38;5.45;;;3.97;;
74042;SDS011;62384;53.600;10.040;2023-04-24T13:55:03;6.53;;;4.10;;
74042;SDS011;62384;53.600;10.040;2023-04-24T13:57:29;6.90;;;4.50;;
74042;SDS011;62384;53.600;10.040;2023-04-24T13:59:55;7.80;;;4.45;;
74042;SDS011;62384;53.600;10.040;2023-04-24T14:02:26;6.05;;;3.90;;
74042;SDS011;62384;53.600;10.040;2023-04-24T14:04:52;7.97;;;4.05;;
74042;SDS011;62384;53.600;10.040;2023-04-24T14:07:17;4.65;;;3.58;;
74042;SDS011;62384;53.600;10.040;2023-04-24T14:09:43;5.70;;;4.10;;
74042;SDS011;62384;53.600;10.040;2023-04-24T14:12:08;6.07;;;4.00;;
74042;SDS011;62384;53.600;10.040;2023-04-24T14:14:33;6.47;;;3.95;;
74042;SDS011;62384;53.600;10.040;2023-04-24T14:16:58;5.43;;;3.45;;
74042;SDS011;62384;53.600;10.040;2023-04-24T14:19:24;7.10;;;3.75;;
74042;SDS011;62384;53.600;10.040;2023-04-24T14:21:49;4.60;;;3.50;;
74042;SDS011;62384;53.600;10.040;2023-04-24T14:24:15;5.80;;;3.42;;
74042;SDS011;62384;53.600;10.040;2023-04-24T14:26:41;5.72;;;3.70;;
74042;SDS011;62384;53.600;10.040;2023-04-24T14:29:07;7.90;;;3.47;;
74042;SDS011;62384;53.600;10.040;2023-04-24T14:31:32;4.10;;;3.13;;
74042;SDS011;62384;53.600;10.040;2023-04-24T14:33:57;6.28;;;3.47;;
74042;SDS011;62384;53.600;10.040;2023-04-24T14:36:23;7.20;;;3.28;;
74042;SDS011;62384;53.600;10.040;2023-04-24T14:38:49;5.20;;;3.42;;
74042;SDS011;62384;53.600;10.040;2023-04-24T14:41:14;6.10;;;4.00;;
74042;SDS011;62384;53.600;10.040;2023-04-24T14:43:39;5.32;;;3.90;;
74042;SDS011;62384;53.600;10.040;2023-04-24T14:46:05;6.90;;;4.07;;
74042;SDS011;62384;53.600;10.040;2023-04-24T14:48:30;8.02;;;5.38;;